Time;durP1;ratioP1;P1;durP2;ratioP2;P2;SDS_P1;SDS_P2;PMS_P1;PMS_P2;Temp;Humidity;BMP_temperature;BMP_pressure;BME280_temperature;BME280_humidity;BME280_pressure;Samples;Min_cycle;Max_cycle;Signal;HPM_P1;HPM_P2
2022/06/07 00:03:00;;;;;;;17.57;11.75;;;;;;;16.47;100.00;100309.33;3568551;81;99569;-80
2022/06/07 00:08:01;;;;;;;19.10;13.88;;;;;;;16.49;100.00;100304.75;3546902;82;99752;-80
2022/06/07 00:13:02;;;;;;;16.00;11.83;;;;;;;16.50;100.00;100304.34;3554673;82;99347;-80
2022/06/07 00:18:03;;;;;;;20.07;12.90;;;;;;;16.50;100.00;100300.17;3548276;81;99463;-80
2022/06/07 00:23:08;;;;;;;20.10;15.45;;;;;;;16.49;100.00;100300.59;3561535;81;99603;-80
2022/06/07 00:28:09;;;;;;;19.67;15.80;;;;;;;16.46;100.00;100298.66;3600449;80;99476;-80
2022/06/07 00:33:10;;;;;;;18.23;14.50;;;;;;;16.42;100.00;100295.14;3669758;79;99483;-80
2022/06/07 00:38:11;;;;;;;17.50;13.47;;;;;;;16.39;100.00;100298.74;3660472;79;99615;-81
2022/06/07 00:43:12;;;;;;;17.05;12.45;;;;;;;16.34;100.00;100290.85;3675994;79;99335;-81
2022/06/07 00:48:14;;;;;;;15.83;11.73;;;;;;;16.31;100.00;100299.45;3679505;79;99348;-80
2022/06/07 00:53:32;;;;;;;20.87;14.40;;;;;;;16.28;100.00;100284.20;3664536;79;99776;-81
2022/06/07 00:58:35;;;;;;;23.00;15.58;;;;;;;16.24;100.00;100287.64;3596844;81;99512;-80
2022/06/07 01:03:36;;;;;;;20.45;13.68;;;;;;;16.17;100.00;100277.42;3668964;78;99467;-81
2022/06/07 01:13:57;;;;;;;21.77;16.77;;;;;;;16.08;100.00;100287.47;3685137;79;99710;-81
2022/06/07 01:18:59;;;;;;;21.02;15.93;;;;;;;16.00;100.00;100284.59;3645161;79;99315;-81
2022/06/07 01:24:00;;;;;;;18.50;13.40;;;;;;;15.95;100.00;100288.63;3670894;80;99323;-81
2022/06/07 01:29:03;;;;;;;18.80;13.23;;;;;;;15.87;100.00;100288.52;3679999;80;99188;-81
2022/06/07 01:34:04;;;;;;;20.10;15.30;;;;;;;15.77;100.00;100293.62;3676808;80;99621;-81
2022/06/07 01:44:44;;;;;;;21.48;15.10;;;;;;;15.71;100.00;100273.08;3683845;79;99465;-81
2022/06/07 01:49:45;;;;;;;22.30;15.83;;;;;;;15.68;100.00;100272.52;3675457;80;99248;-81
2022/06/07 01:54:47;;;;;;;26.68;18.90;;;;;;;15.64;100.00;100278.70;3689408;79;99724;-81
2022/06/07 01:59:49;;;;;;;24.50;17.92;;;;;;;15.63;100.00;100281.88;3684573;80;99359;-81
2022/06/07 02:04:50;;;;;;;22.73;16.30;;;;;;;15.62;100.00;100285.27;3679508;80;31735;-81
2022/06/07 02:09:51;;;;;;;20.63;14.80;;;;;;;15.62;100.00;100283.08;3688652;79;99170;-81
2022/06/07 02:14:52;;;;;;;24.23;17.10;;;;;;;15.62;100.00;100271.40;3661275;80;99191;-81
2022/06/07 02:19:53;;;;;;;22.80;17.73;;;;;;;15.60;100.00;100266.08;3666525;80;99397;-81
2022/06/07 02:24:54;;;;;;;27.33;16.53;;;;;;;15.56;100.00;100252.84;3725157;77;99606;-81
2022/06/07 02:29:55;;;;;;;27.30;14.40;;;;;;;15.56;100.00;100258.39;3756264;78;99340;-81
2022/06/07 02:34:59;;;;;;;40.20;16.13;;;;;;;15.53;100.00;100264.16;3746695;77;27930;-81
2022/06/07 02:40:00;;;;;;;49.20;14.80;;;;;;;15.52;100.00;100264.57;3760879;78;99427;-81
2022/06/07 02:45:01;;;;;;;16.73;12.77;;;;;;;15.50;100.00;100271.14;3757865;77;99426;-81
2022/06/07 02:50:03;;;;;;;28.87;14.33;;;;;;;15.48;100.00;100263.84;3758965;77;99613;-81
2022/06/07 02:55:05;;;;;;;24.47;14.28;;;;;;;15.50;100.00;100271.94;3760464;77;99802;-82
2022/06/07 03:00:11;;;;;;;40.87;14.23;;;;;;;15.51;100.00;100263.80;3735057;78;125681;-81
2022/06/07 03:05:13;;;;;;;24.00;13.58;;;;;;;15.53;100.00;100270.33;3763626;77;99503;-81
2022/06/07 03:10:14;;;;;;;21.23;12.28;;;;;;;15.54;100.00;100278.21;3709598;77;99096;-81
2022/06/07 03:15:15;;;;;;;24.23;13.20;;;;;;;15.54;100.00;100279.59;3754925;78;99290;-81
2022/06/07 03:20:16;;;;;;;16.43;11.93;;;;;;;15.54;100.00;100279.59;3743348;78;99289;-81
2022/06/07 03:25:17;;;;;;;25.93;14.17;;;;;;;15.55;100.00;100275.65;3741749;78;99727;-81
2022/06/07 03:30:19;;;;;;;17.63;12.60;;;;;;;15.59;100.00;100271.44;3752076;78;99630;-81
2022/06/07 03:35:20;;;;;;;17.30;13.23;;;;;;;15.63;100.00;100265.23;3738312;78;99311;-81
2022/06/07 03:45:41;;;;;;;34.90;12.18;;;;;;;15.73;100.00;100274.83;3754071;78;99093;-82
2022/06/07 03:50:42;;;;;;;15.07;10.77;;;;;;;15.81;100.00;100278.31;3771159;77;99194;-81
2022/06/07 03:55:47;;;;;;;21.82;11.16;;;;;;;15.88;100.00;100285.14;3749338;77;99304;-81
2022/06/07 04:00:47;;;;;;;39.20;11.83;;;;;;;15.89;100.00;100284.73;3763929;78;99638;-81
2022/06/07 04:05:48;;;;;;;28.03;12.30;;;;;;;15.91;100.00;100287.11;3772457;77;99263;-82
2022/06/07 04:11:02;;;;;;;20.00;11.50;;;;;;;15.91;100.00;100300.36;3759687;78;99156;-82
2022/06/07 04:16:07;;;;;;;21.30;11.40;;;;;;;15.96;100.00;100303.30;3764234;78;98946;-81
2022/06/07 04:21:10;;;;;;;13.80;10.35;;;;;;;16.04;100.00;100298.63;3726868;78;98613;-81
2022/06/07 04:26:18;;;;;;;14.20;9.83;;;;;;;16.13;100.00;100303.05;3729914;77;99354;-81
2022/06/07 04:31:22;;;;;;;12.78;9.38;;;;;;;16.23;100.00;100295.18;3746836;78;99310;-82
2022/06/07 04:36:26;;;;;;;14.20;9.33;;;;;;;16.30;100.00;100297.08;3729131;77;99221;-81
2022/06/07 04:41:27;;;;;;;14.38;9.43;;;;;;;16.35;100.00;100297.38;3736872;78;99070;-82
2022/06/07 04:46:28;;;;;;;15.87;10.40;;;;;;;16.42;100.00;100296.53;3739964;78;98878;-82
2022/06/07 04:51:34;;;;;;;14.05;9.78;;;;;;;16.48;100.00;100295.66;3742901;78;98328;-82
2022/06/07 04:56:36;;;;;;;15.23;10.68;;;;;;;16.52;100.00;100303.31;3728209;78;99382;-83
2022/06/07 05:01:42;;;;;;;16.45;10.28;;;;;;;16.57;100.00;100307.00;3750098;77;99383;-82
2022/06/07 05:06:43;;;;;;;15.57;10.40;;;;;;;16.61;100.00;100304.97;3728163;76;99238;-82
2022/06/07 05:11:48;;;;;;;17.62;11.12;;;;;;;16.72;100.00;100305.59;3718649;78;99337;-82
2022/06/07 05:16:51;;;;;;;16.83;11.63;;;;;;;16.87;100.00;100301.97;3739347;78;99282;-83
2022/06/07 05:21:52;;;;;;;19.23;12.53;;;;;;;17.14;100.00;100305.48;3749592;78;99230;-82
2022/06/07 05:26:59;;;;;;;17.85;12.45;;;;;;;17.47;100.00;100294.77;3738482;77;99541;-81
2022/06/07 05:32:01;;;;;;;18.65;12.25;;;;;;;17.93;100.00;100303.00;3740883;78;99393;-83
2022/06/07 05:37:02;;;;;;;17.98;12.28;;;;;;;18.39;100.00;100291.66;3730070;78;99572;-82
2022/06/07 05:42:04;;;;;;;14.75;10.23;;;;;;;18.90;100.00;100297.20;3736085;77;99252;-86
2022/06/07 05:47:06;;;;;;;14.85;10.35;;;;;;;19.58;100.00;100292.85;3734164;78;99365;-87
2022/06/07 05:52:08;;;;;;;13.93;9.18;;;;;;;20.13;100.00;100298.86;3734556;78;99106;-87
2022/06/07 05:57:10;;;;;;;14.95;9.80;;;;;;;20.43;99.86;100309.50;3731686;78;99065;-87
2022/06/07 06:02:12;;;;;;;14.53;9.55;;;;;;;20.85;97.81;100322.75;3731303;78;99463;-87
2022/06/07 06:07:13;;;;;;;15.70;10.15;;;;;;;21.39;97.02;100324.75;3723545;78;99339;-87
2022/06/07 06:12:14;;;;;;;13.75;10.08;;;;;;;21.81;96.13;100321.89;3724286;78;99636;-86
2022/06/07 06:17:15;;;;;;;13.65;9.68;;;;;;;22.04;92.33;100319.41;3717528;77;99271;-86
2022/06/07 06:22:16;;;;;;;13.13;9.63;;;;;;;22.23;91.16;100320.31;3716194;78;31700;-86
2022/06/07 06:27:18;;;;;;;13.88;9.43;;;;;;;22.39;89.78;100320.86;3729837;78;98910;-86
2022/06/07 06:32:19;;;;;;;12.60;9.15;;;;;;;22.56;88.93;100336.88;3733558;78;99034;-86
2022/06/07 06:37:20;;;;;;;14.80;10.80;;;;;;;22.81;87.28;100333.84;3715061;77;99259;-85
2022/06/07 06:42:21;;;;;;;15.03;10.28;;;;;;;23.06;85.69;100332.99;3697306;78;99560;-86
2022/06/07 06:47:22;;;;;;;13.75;9.98;;;;;;;23.17;84.00;100339.59;3716307;78;99119;-86
2022/06/07 06:52:23;;;;;;;12.68;9.58;;;;;;;23.46;83.70;100328.73;3719944;78;31734;-86
2022/06/07 06:57:24;;;;;;;13.90;8.88;;;;;;;23.77;83.41;100332.95;3705638;78;99079;-85
2022/06/07 07:02:25;;;;;;;12.13;8.70;;;;;;;24.13;82.78;100322.36;3727504;78;98276;-86
2022/06/07 07:07:25;;;;;;;14.18;8.65;;;;;;;24.42;81.60;100322.59;3738417;76;98975;-85
2022/06/07 07:12:27;;;;;;;13.50;8.88;;;;;;;24.71;79.52;100322.20;3730621;78;99030;-85
2022/06/07 07:17:28;;;;;;;13.88;9.93;;;;;;;24.97;78.85;100322.55;3728742;78;99183;-84
2022/06/07 07:22:29;;;;;;;12.80;8.60;;;;;;;25.32;77.90;100325.80;3737825;78;34914;-84
2022/06/07 07:27:30;;;;;;;10.30;7.65;;;;;;;25.65;76.79;100334.16;3689228;78;98965;-84
2022/06/07 07:32:30;;;;;;;10.30;7.03;;;;;;;25.84;76.04;100333.52;3712718;78;98738;-84
2022/06/07 07:37:32;;;;;;;11.73;7.85;;;;;;;26.06;76.00;100330.39;3704854;78;99041;-85
2022/06/07 07:42:33;;;;;;;11.10;7.62;;;;;;;26.10;75.02;100334.56;3705088;78;99481;-85
2022/06/07 07:47:34;;;;;;;12.40;8.93;;;;;;;26.50;73.46;100344.66;3693462;78;99145;-84
2022/06/07 07:52:35;;;;;;;10.93;7.60;;;;;;;26.99;70.88;100337.66;3691058;79;35373;-85
2022/06/07 07:57:36;;;;;;;10.00;7.00;;;;;;;27.29;70.58;100341.19;3687488;78;99001;-84
2022/06/07 08:02:37;;;;;;;10.68;8.15;;;;;;;27.64;70.01;100344.72;3691283;78;98912;-84
2022/06/07 08:07:38;;;;;;;11.30;7.22;;;;;;;28.02;68.81;100344.42;3698531;78;99036;-81
2022/06/07 08:12:39;;;;;;;8.50;6.22;;;;;;;28.41;64.16;100344.20;3716979;78;98989;-81
2022/06/07 08:17:40;;;;;;;8.98;6.62;;;;;;;28.63;64.66;100340.93;3704744;78;98892;-81
2022/06/07 08:22:41;;;;;;;8.95;6.15;;;;;;;29.31;63.32;100334.58;3700138;78;33033;-82
2022/06/07 08:27:43;;;;;;;8.93;5.87;;;;;;;30.04;62.23;100335.02;3702519;78;99126;-82
2022/06/07 08:32:44;;;;;;;12.65;7.40;;;;;;;30.64;60.80;100328.02;3730461;78;98706;-81
2022/06/07 08:37:45;;;;;;;7.47;4.95;;;;;;;30.54;56.99;100325.31;3721127;77;99013;-84
2022/06/07 08:42:57;;;;;;;7.33;4.62;;;;;;;30.93;59.03;100312.50;3731559;78;99209;-83
2022/06/07 08:48:06;;;;;;;8.00;5.10;;;;;;;31.63;57.40;100317.09;3706887;78;98943;-83
2022/06/07 08:53:21;;;;;;;7.60;5.10;;;;;;;31.85;55.11;100311.31;3707474;78;27431;-83
2022/06/07 08:58:36;;;;;;;8.55;5.08;;;;;;;31.92;53.75;100315.81;3696644;78;99007;-83
2022/06/07 09:04:06;;;;;;;10.50;4.65;;;;;;;32.12;51.76;100306.11;3723778;78;99043;-85
2022/06/07 09:09:10;;;;;;;6.85;3.98;;;;;;;32.26;50.67;100301.49;3721960;78;99324;-84
2022/06/07 09:14:20;;;;;;;;;;;;;;;32.10;48.14;100300.93;3746962;77;98779;-83
2022/06/07 09:19:28;;;;;;;6.45;3.92;;;;;;;32.40;47.27;100303.21;3731025;78;85132;-84
2022/06/07 09:24:34;;;;;;;5.90;3.67;;;;;;;32.22;49.25;100295.94;3723139;78;99176;-84
2022/06/07 09:29:38;;;;;;;7.37;4.45;;;;;;;31.97;46.70;100285.75;3732083;77;99073;-85
2022/06/07 09:34:54;;;;;;;5.03;3.02;;;;;;;32.38;48.72;100280.83;3727944;78;27506;-85
2022/06/07 09:40:20;;;;;;;7.22;4.72;;;;;;;32.94;47.66;100279.80;3721645;78;99041;-86
2022/06/07 09:45:37;;;;;;;6.45;3.42;;;;;;;33.16;45.28;100279.55;3729295;78;98479;-86
2022/06/07 09:50:38;;;;;;;4.70;3.00;;;;;;;32.92;44.27;100278.12;3659756;78;98920;-87
2022/06/07 09:56:15;;;;;;;4.75;2.60;;;;;;;32.69;44.99;100274.59;3671535;78;98925;-88
2022/06/07 10:01:43;;;;;;;5.65;3.20;;;;;;;32.60;44.78;100274.93;3659717;78;99186;-87
2022/06/07 10:07:04;;;;;;;5.20;3.02;;;;;;;32.24;41.59;100266.27;3677678;78;99295;-86
2022/06/07 10:12:43;;;;;;;5.17;3.45;;;;;;;31.51;41.52;100254.44;3680871;78;99133;-88
2022/06/07 10:17:58;;;;;;;5.85;3.17;;;;;;;30.93;41.80;100258.49;3671068;78;98827;-87
2022/06/07 10:23:13;;;;;;;5.28;3.27;;;;;;;30.70;42.19;100253.52;3682954;78;27321;-87
2022/06/07 10:28:42;;;;;;;6.20;2.92;;;;;;;30.57;41.42;100248.22;3668193;77;98793;-87
2022/06/07 10:34:10;;;;;;;5.17;2.77;;;;;;;30.26;41.82;100247.07;3698646;77;98662;-87
2022/06/07 10:39:17;;;;;;;5.60;3.35;;;;;;;30.13;42.62;100240.48;3592803;78;98897;-87
2022/06/07 10:44:37;;;;;;;7.65;3.42;;;;;;;29.79;43.32;100239.50;3682451;77;98806;-86
2022/06/07 10:49:50;;;;;;;5.83;3.42;;;;;;;29.75;44.14;100229.83;3677360;78;98801;-87
2022/06/07 10:55:37;;;;;;;7.20;3.42;;;;;;;29.65;43.70;100232.02;3679061;78;99249;-88
2022/06/07 11:00:50;;;;;;;6.05;3.33;;;;;;;29.66;43.39;100222.99;3670365;78;99274;-87
2022/06/07 11:11:23;;;;;;;7.25;2.90;;;;;;;29.55;45.81;100220.13;3696023;78;25878;-87
2022/06/07 11:16:54;;;;;;;4.20;2.90;;;;;;;29.67;46.12;100216.03;3669317;78;98931;-87
2022/06/07 11:21:58;;;;;;;5.05;2.92;;;;;;;29.70;45.56;100215.65;3657113;78;98709;-86
2022/06/07 11:27:18;;;;;;;5.92;3.50;;;;;;;29.69;46.25;100224.03;3692405;77;98986;-87
2022/06/07 11:32:51;;;;;;;7.25;3.52;;;;;;;29.47;44.27;100227.54;3691822;78;99116;-87
2022/06/07 11:37:53;;;;;;;5.33;3.22;;;;;;;28.94;44.94;100228.20;3682158;78;99263;-86
2022/06/07 11:42:54;;;;;;;5.92;3.42;;;;;;;28.57;46.27;100228.25;3678795;78;98832;-87
2022/06/07 11:48:06;;;;;;;5.33;3.62;;;;;;;28.48;46.39;100235.52;3663828;78;99152;-87
2022/06/07 11:53:25;;;;;;;8.38;3.83;;;;;;;28.12;46.07;100236.22;3690398;77;27386;-88
2022/06/07 11:58:53;;;;;;;7.33;3.77;;;;;;;27.83;46.93;100231.44;3684043;77;98615;-87
2022/06/07 12:04:38;;;;;;;5.95;3.60;;;;;;;27.32;46.76;100240.64;3710929;78;98591;-85
2022/06/07 12:09:44;;;;;;;7.08;4.33;;;;;;;27.03;48.38;100235.09;3647143;78;98602;-87
2022/06/07 12:14:50;;;;;;;6.58;3.83;;;;;;;26.84;48.75;100218.28;3680256;78;99203;-87
2022/06/07 12:19:52;;;;;;;6.17;3.90;;;;;;;26.87;49.27;100220.11;3680935;78;99192;-87
2022/06/07 12:25:01;;;;;;;8.40;4.42;;;;;;;26.67;48.46;100208.81;3686991;78;99254;-87
2022/06/07 12:30:29;;;;;;;9.30;5.37;;;;;;;26.71;49.28;100203.71;3663465;78;99151;-88
2022/06/07 12:35:30;;;;;;;9.70;5.10;;;;;;;26.60;48.89;100191.50;3699402;78;27426;-89
2022/06/07 12:40:36;;;;;;;9.65;5.37;;;;;;;26.43;48.98;100194.04;3676024;78;98781;-85
2022/06/07 12:45:37;;;;;;;9.60;6.12;;;;;;;26.38;49.59;100203.84;3685005;78;98982;-86
2022/06/07 12:50:41;;;;;;;10.75;5.33;;;;;;;26.14;49.47;100196.93;3677292;78;98798;-83
2022/06/07 12:55:42;;;;;;;11.33;5.75;;;;;;;25.99;49.56;100193.99;3681944;78;98963;-87
2022/06/07 13:00:46;;;;;;;9.38;5.03;;;;;;;25.71;49.71;100207.56;3683774;78;98959;-86
2022/06/07 13:06:00;;;;;;;8.45;5.08;;;;;;;25.63;50.06;100207.02;3682133;78;98886;-87
2022/06/07 13:11:04;;;;;;;9.83;4.75;;;;;;;25.76;50.96;100203.27;3669156;78;98495;-88
2022/06/07 13:16:24;;;;;;;7.67;4.70;;;;;;;25.77;50.54;100198.57;3672418;78;98589;-85
2022/06/07 13:21:36;;;;;;;6.70;3.90;;;;;;;25.58;50.23;100200.03;3682047;77;98682;-88
2022/06/07 13:26:47;;;;;;;7.10;4.03;;;;;;;25.49;50.60;100200.11;3665614;78;99180;-88
2022/06/07 13:31:59;;;;;;;6.78;4.05;;;;;;;25.24;50.33;100206.88;3691666;78;98923;-86
2022/06/07 13:37:11;;;;;;;7.08;3.75;;;;;;;25.17;50.60;100208.02;3678888;78;98845;-85
2022/06/07 13:42:19;;;;;;;9.20;4.12;;;;;;;24.97;50.21;100208.50;3689175;78;99181;-87
2022/06/07 13:47:36;;;;;;;9.25;3.60;;;;;;;24.72;50.27;100206.15;3687584;78;98794;-86
2022/06/07 13:57:55;;;;;;;7.72;3.75;;;;;;;24.31;51.88;100202.11;3621250;78;98828;-85
2022/06/07 14:02:56;;;;;;;5.85;3.72;;;;;;;24.14;52.93;100206.56;3685161;78;98857;-89
2022/06/07 14:08:00;;;;;;;8.05;3.58;;;;;;;23.85;53.24;100208.34;3676946;78;98824;-86
2022/06/07 14:13:01;;;;;;;6.08;3.30;;;;;;;23.64;54.16;100210.75;3687277;78;98757;-88
2022/06/07 14:18:02;;;;;;;6.67;4.00;;;;;;;;;;3643717;78;98759;-86
2022/06/07 14:23:04;;;;;;;10.55;4.47;;;;;;;23.28;55.17;100211.53;3671505;78;33756;-86
2022/06/07 14:28:18;;;;;;;9.78;5.40;;;;;;;23.09;57.08;100218.38;3641405;78;99350;-85
2022/06/07 14:33:22;;;;;;;9.38;5.10;;;;;;;22.86;58.63;100220.37;3674895;78;99225;-86
2022/06/07 14:38:24;;;;;;;12.05;5.97;;;;;;;22.58;59.93;100217.36;3678294;78;98984;-87
2022/06/07 14:43:25;;;;;;;12.68;6.40;;;;;;;22.19;61.72;100224.34;3692258;78;99450;-86
2022/06/07 14:48:40;;;;;;;9.20;5.62;;;;;;;21.95;63.55;100228.27;3679598;78;99030;-86
2022/06/07 14:53:41;;;;;;;8.98;6.05;;;;;;;21.63;64.83;100223.05;3675440;78;27364;-84
2022/06/07 14:58:44;;;;;;;9.53;5.83;;;;;;;21.33;67.16;100226.58;3679278;78;98841;-86
2022/06/07 15:03:46;;;;;;;8.20;5.00;;;;;;;21.21;67.15;100223.82;3699142;78;98663;-84
2022/06/07 15:08:49;;;;;;;10.95;5.42;;;;;;;21.05;66.72;100225.39;3681314;78;99162;-85
2022/06/07 15:13:50;;;;;;;9.38;5.47;;;;;;;20.88;66.67;100222.55;3674027;78;99215;-88
2022/06/07 15:18:51;;;;;;;9.40;5.28;;;;;;;20.71;68.07;100220.50;3670585;78;99173;-87
2022/06/07 15:23:53;;;;;;;14.47;5.47;;;;;;;20.56;68.25;100227.83;3721047;78;99282;-87
2022/06/07 15:28:54;;;;;;;9.60;4.53;;;;;;;20.35;69.06;100227.71;3699310;78;98696;-84
2022/06/07 15:33:59;;;;;;;9.38;5.30;;;;;;;20.29;69.39;100221.91;3696119;78;98640;-84
2022/06/07 15:39:00;;;;;;;8.83;4.85;;;;;;;20.21;70.73;100220.55;3707934;78;98857;-87
2022/06/07 15:44:04;;;;;;;10.55;6.05;;;;;;;20.14;71.63;100222.78;3705448;78;98822;-85
2022/06/07 15:49:06;;;;;;;10.70;5.53;;;;;;;20.02;72.79;100211.75;3721065;78;99057;-84
2022/06/07 15:54:07;;;;;;;11.48;7.10;;;;;;;19.91;73.67;100217.48;3718124;78;99314;-87
2022/06/07 15:59:08;;;;;;;11.15;7.70;;;;;;;19.83;75.42;100225.28;3721967;78;98701;-86
2022/06/07 16:04:10;;;;;;;13.22;7.65;;;;;;;19.54;76.38;100208.41;3702894;78;98822;-85
2022/06/07 16:09:14;;;;;;;12.28;7.22;;;;;;;19.49;77.90;100210.34;3713070;78;99179;-83
2022/06/07 16:14:15;;;;;;;13.53;8.53;;;;;;;19.45;78.12;100209.69;3734668;77;98924;-85
2022/06/07 16:19:17;;;;;;;12.68;8.25;;;;;;;19.39;80.85;100205.84;3701524;77;122147;-83
2022/06/07 16:24:18;;;;;;;11.12;6.80;;;;;;;19.26;80.48;100199.45;3728882;78;99113;-86
2022/06/07 16:34:40;;;;;;;13.65;7.78;;;;;;;19.06;81.59;100202.34;3692749;78;98900;-84
2022/06/07 16:39:41;;;;;;;11.55;8.43;;;;;;;18.94;81.84;100195.31;3706194;76;98794;-84
2022/06/07 16:44:42;;;;;;;16.82;9.40;;;;;;;18.92;82.65;100200.55;3730210;77;99345;-84
2022/06/07 16:49:43;;;;;;;13.62;9.53;;;;;;;18.90;83.30;100206.56;3717901;78;99276;-82
2022/06/07 16:54:44;;;;;;;14.50;9.55;;;;;;;18.78;83.62;100211.47;3721551;78;99423;-83
2022/06/07 16:59:52;;;;;;;11.00;7.45;;;;;;;18.65;83.98;100206.41;3689942;78;98883;-83
2022/06/07 17:04:55;;;;;;;13.28;8.30;;;;;;;18.57;84.63;100211.20;3706585;78;97802;-86
2022/06/07 17:09:59;;;;;;;12.58;7.22;;;;;;;18.43;85.03;100212.33;3684925;78;98902;-85
2022/06/07 17:14:59;;;;;;;11.68;7.92;;;;;;;18.36;85.14;100212.51;3711299;78;99032;-85
2022/06/07 17:20:00;;;;;;;12.58;7.92;;;;;;;18.29;85.76;100209.08;3696843;78;99386;-85
2022/06/07 17:25:01;;;;;;;11.90;7.62;;;;;;;18.21;86.30;100207.06;3700394;78;99300;-84
2022/06/07 17:30:04;;;;;;;14.05;8.93;;;;;;;18.15;86.16;100201.83;3707606;78;98862;-84
2022/06/07 17:35:09;;;;;;;14.65;9.18;;;;;;;18.20;86.75;100210.30;3713565;78;32573;-85
2022/06/07 17:40:15;;;;;;;11.68;8.15;;;;;;;18.15;87.17;100210.19;3703207;78;98835;-84
2022/06/07 17:45:17;;;;;;;12.43;8.53;;;;;;;18.15;87.68;100204.62;3708116;78;99329;-84
2022/06/07 17:50:26;;;;;;;14.68;9.50;;;;;;;18.09;88.62;100203.56;3715468;78;98958;-85
2022/06/07 17:55:30;;;;;;;14.20;8.70;;;;;;;18.07;88.94;100195.47;3709017;75;98921;-87
2022/06/07 18:00:34;;;;;;;13.85;9.40;;;;;;;18.08;88.42;100190.86;3708572;78;99289;-87
2022/06/07 18:05:37;;;;;;;13.15;9.18;;;;;;;18.09;88.79;100187.48;3715225;78;32995;-86
2022/06/07 18:10:42;;;;;;;12.03;9.48;;;;;;;18.11;88.52;100185.83;3699868;78;98908;-86
2022/06/07 18:15:47;;;;;;;14.53;9.75;;;;;;;18.14;88.63;100184.19;3715405;77;98614;-86
2022/06/07 18:20:49;;;;;;;13.55;10.08;;;;;;;18.16;88.77;100178.33;3709138;78;99030;-86
2022/06/07 18:25:51;;;;;;;17.60;10.03;;;;;;;18.18;89.78;100191.23;3698344;78;99553;-85
2022/06/07 18:30:53;;;;;;;17.12;11.63;;;;;;;18.15;90.08;100196.89;3684978;78;99136;-87
2022/06/07 18:35:55;;;;;;;21.15;13.83;;;;;;;18.14;90.81;100200.89;3664830;79;32436;-86
2022/06/07 18:40:58;;;;;;;17.65;12.50;;;;;;;18.11;90.28;100196.17;3680534;78;99136;-88
2022/06/07 18:45:59;;;;;;;15.95;9.95;;;;;;;18.14;90.68;100185.58;3690263;78;98969;-86
2022/06/07 18:51:00;;;;;;;16.30;9.80;;;;;;;18.13;90.85;100182.59;3667308;79;98877;-86
2022/06/07 18:56:06;;;;;;;14.03;9.40;;;;;;;18.12;91.00;100202.72;3681884;78;98976;-85
2022/06/07 19:01:31;;;;;;;12.93;8.80;;;;;;;18.11;91.09;100201.16;3655289;78;99419;-88
2022/06/07 19:06:32;;;;;;;14.30;9.00;;;;;;;18.10;91.30;100194.62;3679944;78;99663;-87
2022/06/07 19:11:38;;;;;;;13.83;9.20;;;;;;;18.05;91.43;100201.46;3678222;78;32926;-86
2022/06/07 19:16:40;;;;;;;;;;;;;;;18.06;92.38;100204.45;3681554;78;99167;-87
2022/06/07 19:21:44;;;;;;;15.18;10.60;;;;;;;18.05;92.54;100204.88;3677051;80;84122;-87
2022/06/07 19:26:44;;;;;;;16.87;11.43;;;;;;;18.03;91.88;100209.48;3677155;78;99570;-88
2022/06/07 19:31:45;;;;;;;15.48;10.28;;;;;;;17.99;92.01;100217.12;3677799;78;99565;-87
2022/06/07 19:36:47;;;;;;;16.85;12.13;;;;;;;17.97;92.40;100223.73;3691104;78;98295;-87
2022/06/07 19:41:50;;;;;;;17.50;13.15;;;;;;;17.96;92.84;100227.75;3684491;78;33100;-86
2022/06/07 19:46:52;;;;;;;17.62;13.10;;;;;;;17.92;93.33;100221.46;3686183;78;99112;-89
2022/06/07 19:51:55;;;;;;;17.87;13.13;;;;;;;17.86;93.70;100221.00;3688504;78;99039;-89
2022/06/07 19:57:02;;;;;;;18.70;12.03;;;;;;;17.81;93.78;100218.72;3662054;78;99593;-90
2022/06/07 20:02:04;;;;;;;18.02;10.93;;;;;;;17.72;93.82;100211.58;3685165;78;98388;-91
2022/06/07 20:07:05;;;;;;;14.33;11.08;;;;;;;17.68;93.76;100215.03;3611330;78;99476;-89
2022/06/07 20:12:09;;;;;;;14.95;10.32;;;;;;;17.62;94.25;100207.81;3689050;78;99106;-89
2022/06/07 20:17:11;;;;;;;16.00;10.25;;;;;;;17.60;94.01;100199.09;3687805;78;99212;-89
2022/06/07 20:22:12;;;;;;;14.20;10.10;;;;;;;17.59;94.18;100198.12;3682042;78;98960;-91
2022/06/07 20:27:14;;;;;;;17.67;13.03;;;;;;;17.55;93.98;100193.26;3674053;78;99677;-88
2022/06/07 20:32:15;;;;;;;19.90;14.38;;;;;;;17.50;94.52;100194.52;3702028;78;99668;-88
2022/06/07 20:37:19;;;;;;;21.55;15.70;;;;;;;17.47;95.47;100194.60;3701163;78;98775;-90
2022/06/07 20:42:20;;;;;;;21.97;14.47;;;;;;;17.44;95.83;100205.98;3734025;78;99172;-90
2022/06/07 20:47:21;;;;;;;16.32;12.82;;;;;;;17.41;96.19;100207.45;3694007;78;98999;-90
2022/06/07 20:52:22;;;;;;;18.62;14.33;;;;;;;17.36;95.89;100197.58;3718966;78;99058;-91
2022/06/07 20:57:23;;;;;;;17.65;12.30;;;;;;;17.35;96.42;100188.27;3711625;78;99328;-89
2022/06/07 21:02:24;;;;;;;16.62;13.32;;;;;;;17.30;96.27;100181.81;3660553;79;99578;-91
2022/06/07 21:07:25;;;;;;;17.75;12.55;;;;;;;17.29;96.14;100179.66;3702702;78;99159;-90
2022/06/07 21:12:26;;;;;;;21.02;14.10;;;;;;;17.28;96.87;100185.63;3687319;78;99180;-89
2022/06/07 21:17:28;;;;;;;15.65;12.15;;;;;;;17.23;97.21;100183.34;3718554;78;99138;-89
2022/06/07 21:22:29;;;;;;;16.82;13.80;;;;;;;17.17;97.05;100193.41;3692152;78;98137;-90
2022/06/07 21:27:30;;;;;;;14.65;10.82;;;;;;;17.16;96.94;100189.06;3688289;78;98937;-91
2022/06/07 21:32:31;;;;;;;15.20;12.18;;;;;;;17.11;96.72;100185.38;3677391;78;99465;-91
2022/06/07 21:37:32;;;;;;;16.42;13.25;;;;;;;17.05;96.55;100183.69;3613432;80;99121;-90
2022/06/07 21:42:33;;;;;;;16.75;13.20;;;;;;;17.01;96.80;100176.63;3702465;78;99137;-89
2022/06/07 21:47:36;;;;;;;20.55;13.78;;;;;;;16.94;97.30;100174.77;3702430;78;98953;-90
2022/06/07 21:52:38;;;;;;;22.13;14.68;;;;;;;16.90;97.09;100181.61;3695960;78;99406;-89
2022/06/07 21:57:39;;;;;;;19.82;15.58;;;;;;;16.83;98.29;100186.68;3692124;78;99693;-85
2022/06/07 22:02:41;;;;;;;20.32;14.98;;;;;;;16.73;98.74;100174.38;3638196;79;99001;-85
2022/06/07 22:07:43;;;;;;;20.02;15.32;;;;;;;16.69;98.40;100177.81;3644619;79;99532;-85
2022/06/07 22:12:45;;;;;;;16.15;12.82;;;;;;;16.64;98.50;100176.91;3655365;79;99491;-84
2022/06/07 22:17:47;;;;;;;19.50;15.05;;;;;;;16.57;98.71;100177.81;3650433;79;98797;-85
2022/06/07 22:22:49;;;;;;;19.87;14.83;;;;;;;16.51;98.91;100163.45;3594384;81;99047;-86
2022/06/07 22:27:50;;;;;;;17.30;13.90;;;;;;;16.46;98.83;100159.15;3625333;79;99026;-85
2022/06/07 22:32:51;;;;;;;17.80;13.62;;;;;;;16.42;98.99;100154.88;3635079;79;99224;-85
2022/06/07 22:37:53;;;;;;;30.32;17.70;;;;;;;16.39;99.06;100148.16;3594942;80;99573;-85
2022/06/07 22:42:54;;;;;;;25.48;16.55;;;;;;;16.37;100.00;100144.20;3656072;80;99515;-85
2022/06/07 22:47:55;;;;;;;25.73;18.73;;;;;;;16.32;100.00;100144.69;3595671;81;99223;-85
2022/06/07 22:53:14;;;;;;;24.87;18.93;;;;;;;16.29;100.00;100139.38;3661185;79;99006;-85
2022/06/07 22:58:34;;;;;;;26.73;18.30;;;;;;;16.28;100.00;100137.02;3616298;79;99625;-86
2022/06/07 23:03:44;;;;;;;24.87;18.25;;;;;;;16.28;100.00;100134.23;3652082;79;98291;-85
2022/06/07 23:08:49;;;;;;;29.18;20.95;;;;;;;16.28;100.00;100136.42;3657682;79;99376;-85
2022/06/07 23:19:11;;;;;;;43.85;20.43;;;;;;;16.27;100.00;100136.25;3611598;80;99317;-85
2022/06/07 23:24:12;;;;;;;34.33;20.57;;;;;;;16.23;100.00;100134.71;3637296;80;99652;-84
2022/06/07 23:29:14;;;;;;;60.90;22.75;;;;;;;16.21;100.00;100137.14;3658015;79;99039;-84
2022/06/07 23:34:15;;;;;;;31.68;21.07;;;;;;;16.21;100.00;100139.32;3664500;79;99179;-84
2022/06/07 23:39:16;;;;;;;30.50;20.48;;;;;;;16.21;100.00;100134.36;3650706;79;99833;-84
2022/06/07 23:44:18;;;;;;;47.23;21.90;;;;;;;16.22;100.00;100138.11;3651301;79;99628;-84
2022/06/07 23:49:21;;;;;;;45.17;22.48;;;;;;;16.22;100.00;100133.15;3655886;79;99775;-85
2022/06/07 23:54:22;;;;;;;42.53;22.58;;;;;;;16.20;100.00;100135.57;3653079;80;99384;-84